sensor_id;sensor_type;location;lat;lon;timestamp;pressure;altitude;pressure_sealevel;temperature;humidity
11212;BME280;5663;50.864;12.096;2023-03-20T00:18:00;99450.78;;;10.22;74.17
11212;BME280;5663;50.864;12.096;2023-03-20T00:20:28;99446.31;;;10.24;74.26
11212;BME280;5663;50.864;12.096;2023-03-20T00:22:56;99459.22;;;10.27;74.26
11212;BME280;5663;50.864;12.096;2023-03-20T00:25:24;99455.69;;;10.28;74.77
11212;BME280;5663;50.864;12.096;2023-03-20T00:27:54;99454.81;;;10.29;74.61
11212;BME280;5663;50.864;12.096;2023-03-20T00:30:24;99453.88;;;10.30;74.78
11212;BME280;5663;50.864;12.096;2023-03-20T00:32:54;99452.97;;;10.31;74.85
11212;BME280;5663;50.864;12.096;2023-03-20T00:35:26;99446.84;;;10.32;74.90
11212;BME280;5663;50.864;12.096;2023-03-20T00:37:55;99442.31;;;10.36;74.77
11212;BME280;5663;50.864;12.096;2023-03-20T00:40:27;99444.88;;;10.38;74.71
11212;BME280;5663;50.864;12.096;2023-03-20T00:42:58;99446.53;;;10.39;74.75
11212;BME280;5663;50.864;12.096;2023-03-20T00:45:27;99446.41;;;10.42;74.66
11212;BME280;5663;50.864;12.096;2023-03-20T00:47:55;99443.72;;;10.43;74.69
11212;BME280;5663;50.864;12.096;2023-03-20T00:50:26;99457.56;;;10.44;74.68
11212;BME280;5663;50.864;12.096;2023-03-20T00:52:56;99441.13;;;10.43;74.97
11212;BME280;5663;50.864;12.096;2023-03-20T00:55:25;99446.41;;;10.42;75.06
11212;BME280;5663;50.864;12.096;2023-03-20T00:57:55;99394.91;;;10.14;75.17
11212;BME280;5663;50.864;12.096;2023-03-20T01:00:28;99445.41;;;10.44;74.84
11212;BME280;5663;50.864;12.096;2023-03-20T01:02:57;99414.09;;;10.28;74.89
11212;BME280;5663;50.864;12.096;2023-03-20T01:05:27;99416.72;;;10.28;75.05
11212;BME280;5663;50.864;12.096;2023-03-20T01:07:55;99443.63;;;10.45;74.98
11212;BME280;5663;50.864;12.096;2023-03-20T01:10:27;99448.81;;;10.45;74.97
11212;BME280;5663;50.864;12.096;2023-03-20T01:12:59;99439.34;;;10.44;74.86
11212;BME280;5663;50.864;12.096;2023-03-20T01:15:31;99445.53;;;10.41;74.91
11212;BME280;5663;50.864;12.096;2023-03-20T01:17:59;99443.03;;;10.40;74.68
11212;BME280;5663;50.864;12.096;2023-03-20T01:20:29;99448.38;;;10.36;74.93
11212;BME280;5663;50.864;12.096;2023-03-20T01:22:57;99444.00;;;10.37;74.87
11212;BME280;5663;50.864;12.096;2023-03-20T01:25:25;99455.28;;;10.38;74.71
11212;BME280;5663;50.864;12.096;2023-03-20T01:27:53;99445.00;;;10.34;74.74
11212;BME280;5663;50.864;12.096;2023-03-20T01:30:24;99407.41;;;10.05;74.79
11212;BME280;5663;50.864;12.096;2023-03-20T01:32:53;99449.75;;;10.26;74.62
11212;BME280;5663;50.864;12.096;2023-03-20T01:35:22;99456.13;;;10.19;74.63
11212;BME280;5663;50.864;12.096;2023-03-20T01:37:53;99456.25;;;10.16;74.56
11212;BME280;5663;50.864;12.096;2023-03-20T01:40:29;99450.53;;;10.09;74.77
11212;BME280;5663;50.864;12.096;2023-03-20T01:42:58;99407.03;;;9.77;74.58
11212;BME280;5663;50.864;12.096;2023-03-20T01:45:31;99455.31;;;10.00;74.24
11212;BME280;5663;50.864;12.096;2023-03-20T01:48:08;99459.09;;;9.93;74.23
11212;BME280;5663;50.864;12.096;2023-03-20T01:50:39;99452.72;;;9.81;74.39
11212;BME280;5663;50.864;12.096;2023-03-20T01:53:10;99462.22;;;9.82;74.53
11212;BME280;5663;50.864;12.096;2023-03-20T01:55:40;99463.31;;;9.76;74.35
11212;BME280;5663;50.864;12.096;2023-03-20T01:58:13;99468.94;;;9.67;74.34
11212;BME280;5663;50.864;12.096;2023-03-20T02:00:42;99463.88;;;9.64;74.19
11212;BME280;5663;50.864;12.096;2023-03-20T02:03:09;99468.50;;;9.57;74.07
11212;BME280;5663;50.864;12.096;2023-03-20T02:05:37;99461.09;;;9.50;74.41
11212;BME280;5663;50.864;12.096;2023-03-20T02:08:14;99468.22;;;9.45;73.91
11212;BME280;5663;50.864;12.096;2023-03-20T02:10:44;99460.78;;;9.37;74.03
11212;BME280;5663;50.864;12.096;2023-03-20T02:13:14;99464.56;;;9.30;73.55
11212;BME280;5663;50.864;12.096;2023-03-20T02:15:56;99463.19;;;9.21;73.21
11212;BME280;5663;50.864;12.096;2023-03-20T02:18:24;99466.19;;;9.12;73.79
11212;BME280;5663;50.864;12.096;2023-03-20T02:27:04;99475.34;;;8.80;73.52
11212;BME280;5663;50.864;12.096;2023-03-20T02:30:04;99484.25;;;8.74;73.66
11212;BME280;5663;50.864;12.096;2023-03-20T02:36:14;99482.41;;;8.56;72.95
11212;BME280;5663;50.864;12.096;2023-03-20T02:39:18;99473.97;;;8.51;73.59
11212;BME280;5663;50.864;12.096;2023-03-20T02:41:55;99466.56;;;8.42;73.25
11212;BME280;5663;50.864;12.096;2023-03-20T02:44:32;99474.34;;;8.42;72.90
11212;BME280;5663;50.864;12.096;2023-03-20T02:47:06;99474.47;;;8.38;73.96
11212;BME280;5663;50.864;12.096;2023-03-20T02:49:50;99479.75;;;8.35;73.43
11212;BME280;5663;50.864;12.096;2023-03-20T02:52:24;99470.47;;;8.30;73.09
11212;BME280;5663;50.864;12.096;2023-03-20T02:55:05;99453.91;;;8.12;73.15
11212;BME280;5663;50.864;12.096;2023-03-20T02:57:40;99471.84;;;8.17;73.62
11212;BME280;5663;50.864;12.096;2023-03-20T03:00:13;99458.53;;;8.04;73.27
11212;BME280;5663;50.864;12.096;2023-03-20T03:02:46;99470.59;;;8.05;73.65
11212;BME280;5663;50.864;12.096;2023-03-20T03:05:20;99467.34;;;8.00;73.47
11212;BME280;5663;50.864;12.096;2023-03-20T03:07:51;99469.28;;;7.95;73.73
11212;BME280;5663;50.864;12.096;2023-03-20T03:10:25;99456.84;;;7.81;73.29
11212;BME280;5663;50.864;12.096;2023-03-20T03:12:55;99468.84;;;7.83;74.18
11212;BME280;5663;50.864;12.096;2023-03-20T03:15:27;99467.25;;;7.79;73.51
11212;BME280;5663;50.864;12.096;2023-03-20T03:17:57;99476.97;;;7.74;73.92
11212;BME280;5663;50.864;12.096;2023-03-20T06:19:25;99552.09;;;9.06;77.02
11212;BME280;5663;50.864;12.096;2023-03-20T06:21:53;99560.41;;;9.14;76.89
11212;BME280;5663;50.864;12.096;2023-03-20T06:24:20;99555.78;;;9.21;77.06
11212;BME280;5663;50.864;12.096;2023-03-20T06:26:48;99563.22;;;9.28;77.05
11212;BME280;5663;50.864;12.096;2023-03-20T06:29:15;99550.91;;;9.33;77.25
11212;BME280;5663;50.864;12.096;2023-03-20T06:31:43;99554.22;;;9.37;77.69
11212;BME280;5663;50.864;12.096;2023-03-20T06:34:11;99563.38;;;9.46;77.94
11212;BME280;5663;50.864;12.096;2023-03-20T06:36:43;99552.59;;;9.55;77.96
11212;BME280;5663;50.864;12.096;2023-03-20T06:39:10;99555.69;;;9.63;77.96
11212;BME280;5663;50.864;12.096;2023-03-20T06:41:38;99563.78;;;9.76;77.48
11212;BME280;5663;50.864;12.096;2023-03-20T06:44:06;99560.00;;;9.83;77.92
11212;BME280;5663;50.864;12.096;2023-03-20T06:46:34;99554.47;;;9.91;78.28
11212;BME280;5663;50.864;12.096;2023-03-20T06:49:02;99556.53;;;10.01;78.12
11212;BME280;5663;50.864;12.096;2023-03-20T06:51:31;99555.44;;;10.07;78.25
11212;BME280;5663;50.864;12.096;2023-03-20T06:54:00;99543.16;;;10.10;78.09
11212;BME280;5663;50.864;12.096;2023-03-20T06:56:28;99552.91;;;10.24;78.19
11212;BME280;5663;50.864;12.096;2023-03-20T06:58:56;99562.63;;;10.40;78.27
11212;BME280;5663;50.864;12.096;2023-03-20T07:01:23;99569.97;;;10.49;78.05
11212;BME280;5663;50.864;12.096;2023-03-20T07:03:51;99568.63;;;10.59;78.05
11212;BME280;5663;50.864;12.096;2023-03-20T07:06:18;99552.88;;;10.62;78.09
11212;BME280;5663;50.864;12.096;2023-03-20T07:08:46;99550.75;;;10.70;77.90
11212;BME280;5663;50.864;12.096;2023-03-20T07:11:15;99560.25;;;10.89;77.92
11212;BME280;5663;50.864;12.096;2023-03-20T07:13:43;99561.50;;;10.99;77.62
11212;BME280;5663;50.864;12.096;2023-03-20T07:16:12;99563.63;;;11.08;77.38
11212;BME280;5663;50.864;12.096;2023-03-20T07:18:44;99561.25;;;11.21;77.36
11212;BME280;5663;50.864;12.096;2023-03-20T08:20:11;99562.72;;;13.18;73.15
11212;BME280;5663;50.864;12.096;2023-03-20T08:22:39;99576.03;;;13.29;72.64
11212;BME280;5663;50.864;12.096;2023-03-20T08:25:08;99581.53;;;13.39;72.74
11212;BME280;5663;50.864;12.096;2023-03-20T08:27:36;99579.31;;;13.47;72.71
11212;BME280;5663;50.864;12.096;2023-03-20T08:30:05;99581.56;;;13.53;72.69
11212;BME280;5663;50.864;12.096;2023-03-20T08:32:33;99567.84;;;13.49;72.70
11212;BME280;5663;50.864;12.096;2023-03-20T08:35:01;99586.25;;;13.62;72.27
11212;BME280;5663;50.864;12.096;2023-03-20T08:37:30;99578.22;;;13.65;72.15
11212;BME280;5663;50.864;12.096;2023-03-20T08:39:58;99583.25;;;13.68;71.59
11212;BME280;5663;50.864;12.096;2023-03-20T08:42:25;99569.09;;;13.72;71.77
11212;BME280;5663;50.864;12.096;2023-03-20T08:44:53;99577.47;;;13.77;71.55
11212;BME280;5663;50.864;12.096;2023-03-20T08:47:21;99549.09;;;13.71;71.69
11212;BME280;5663;50.864;12.096;2023-03-20T08:49:48;99563.84;;;13.87;71.62
11212;BME280;5663;50.864;12.096;2023-03-20T08:52:16;99575.56;;;14.08;71.46
11212;BME280;5663;50.864;12.096;2023-03-20T08:54:45;99580.06;;;14.20;71.50
11212;BME280;5663;50.864;12.096;2023-03-20T08:57:13;99582.66;;;14.35;71.23
11212;BME280;5663;50.864;12.096;2023-03-20T08:59:41;99589.19;;;14.42;71.07
11212;BME280;5663;50.864;12.096;2023-03-20T09:02:09;99576.81;;;14.44;70.81
11212;BME280;5663;50.864;12.096;2023-03-20T09:04:37;99580.69;;;14.52;70.42
11212;BME280;5663;50.864;12.096;2023-03-20T09:07:05;99566.09;;;14.48;70.07
11212;BME280;5663;50.864;12.096;2023-03-20T09:09:34;99587.84;;;14.63;69.62
11212;BME280;5663;50.864;12.096;2023-03-20T09:12:03;99585.97;;;14.65;69.48
11212;BME280;5663;50.864;12.096;2023-03-20T09:14:31;99582.59;;;14.63;69.48
11212;BME280;5663;50.864;12.096;2023-03-20T09:16:58;99585.03;;;14.66;69.45
11212;BME280;5663;50.864;12.096;2023-03-20T09:19:26;99588.09;;;14.73;69.20
11212;BME280;5663;50.864;12.096;2023-03-20T09:21:53;99585.19;;;14.77;68.73
11212;BME280;5663;50.864;12.096;2023-03-20T09:24:21;99576.38;;;14.78;68.33
11212;BME280;5663;50.864;12.096;2023-03-20T09:26:48;99566.09;;;14.75;68.01
11212;BME280;5663;50.864;12.096;2023-03-20T09:29:18;99567.56;;;14.79;68.21
11212;BME280;5663;50.864;12.096;2023-03-20T09:31:46;99539.22;;;14.59;67.77
11212;BME280;5663;50.864;12.096;2023-03-20T09:34:13;99585.84;;;14.94;67.41
11212;BME280;5663;50.864;12.096;2023-03-20T09:36:43;99594.25;;;14.99;67.39
11212;BME280;5663;50.864;12.096;2023-03-20T09:39:11;99595.84;;;15.01;67.17
11212;BME280;5663;50.864;12.096;2023-03-20T09:41:39;99589.34;;;15.07;67.29
11212;BME280;5663;50.864;12.096;2023-03-20T09:44:14;99559.78;;;14.92;67.01
11212;BME280;5663;50.864;12.096;2023-03-20T09:46:59;99592.72;;;15.22;66.51
11212;BME280;5663;50.864;12.096;2023-03-20T09:49:39;99591.38;;;15.29;66.53
11212;BME280;5663;50.864;12.096;2023-03-20T09:52:17;99597.03;;;15.36;66.11
11212;BME280;5663;50.864;12.096;2023-03-20T09:54:50;99604.91;;;15.36;65.85
11212;BME280;5663;50.864;12.096;2023-03-20T09:57:22;99598.75;;;15.37;65.96
11212;BME280;5663;50.864;12.096;2023-03-20T09:59:54;99599.56;;;15.37;65.58
11212;BME280;5663;50.864;12.096;2023-03-20T10:02:35;99604.69;;;15.39;65.60
11212;BME280;5663;50.864;12.096;2023-03-20T10:05:14;99582.38;;;15.33;65.91
11212;BME280;5663;50.864;12.096;2023-03-20T10:07:43;99587.81;;;15.43;65.30
11212;BME280;5663;50.864;12.096;2023-03-20T10:10:12;99604.63;;;15.53;64.99
11212;BME280;5663;50.864;12.096;2023-03-20T10:12:51;99606.72;;;15.61;65.09
11212;BME280;5663;50.864;12.096;2023-03-20T10:15:33;99585.63;;;15.62;65.04
11212;BME280;5663;50.864;12.096;2023-03-20T10:18:10;99568.25;;;15.61;64.50
11212;BME280;5663;50.864;12.096;2023-03-20T11:22:24;99565.38;;;17.11;59.14
11212;BME280;5663;50.864;12.096;2023-03-20T11:24:54;99558.31;;;17.01;59.55
11212;BME280;5663;50.864;12.096;2023-03-20T11:27:26;99555.09;;;16.97;59.74
11212;BME280;5663;50.864;12.096;2023-03-20T11:29:54;99554.47;;;16.93;60.51
11212;BME280;5663;50.864;12.096;2023-03-20T11:32:27;99561.75;;;16.90;60.90
11212;BME280;5663;50.864;12.096;2023-03-20T11:35:09;99567.75;;;16.92;61.01
11212;BME280;5663;50.864;12.096;2023-03-20T11:37:44;99527.72;;;16.64;60.73
11212;BME280;5663;50.864;12.096;2023-03-20T11:40:20;99554.75;;;16.78;60.70
11212;BME280;5663;50.864;12.096;2023-03-20T11:42:52;99556.72;;;16.87;60.95
11212;BME280;5663;50.864;12.096;2023-03-20T11:45:22;99563.03;;;16.84;61.12
11212;BME280;5663;50.864;12.096;2023-03-20T11:47:53;99560.50;;;16.83;60.25
11212;BME280;5663;50.864;12.096;2023-03-20T11:50:28;99556.97;;;16.84;59.88
11212;BME280;5663;50.864;12.096;2023-03-20T11:52:59;99561.13;;;16.86;60.15
11212;BME280;5663;50.864;12.096;2023-03-20T11:55:30;99553.38;;;16.85;59.69
11212;BME280;5663;50.864;12.096;2023-03-20T11:57:59;99551.69;;;16.84;59.92
11212;BME280;5663;50.864;12.096;2023-03-20T12:00:29;99548.13;;;16.85;59.04
11212;BME280;5663;50.864;12.096;2023-03-20T12:03:02;99542.66;;;16.88;59.52
11212;BME280;5663;50.864;12.096;2023-03-20T12:05:32;99539.06;;;16.89;58.86
11212;BME280;5663;50.864;12.096;2023-03-20T12:08:08;99539.88;;;16.89;59.10
11212;BME280;5663;50.864;12.096;2023-03-20T12:10:42;99540.94;;;16.87;58.88
11212;BME280;5663;50.864;12.096;2023-03-20T12:13:19;99534.03;;;16.86;59.06
11212;BME280;5663;50.864;12.096;2023-03-20T12:15:51;99512.22;;;16.72;58.89
11212;BME280;5663;50.864;12.096;2023-03-20T12:18:26;99474.31;;;16.53;58.99
11212;BME280;5663;50.864;12.096;2023-03-20T15:23:28;99445.34;;;14.67;64.92
11212;BME280;5663;50.864;12.096;2023-03-20T15:25:59;99453.94;;;14.69;65.26
11212;BME280;5663;50.864;12.096;2023-03-20T15:28:26;99452.28;;;14.68;65.16
11212;BME280;5663;50.864;12.096;2023-03-20T15:30:57;99433.81;;;14.57;65.20
11212;BME280;5663;50.864;12.096;2023-03-20T15:33:30;99416.06;;;14.48;65.24
11212;BME280;5663;50.864;12.096;2023-03-20T15:36:08;99440.94;;;14.68;65.67
11212;BME280;5663;50.864;12.096;2023-03-20T15:38:43;99443.47;;;14.69;65.81
11212;BME280;5663;50.864;12.096;2023-03-20T15:41:24;99442.72;;;14.67;65.86
11212;BME280;5663;50.864;12.096;2023-03-20T15:43:52;99439.19;;;14.68;65.74
11212;BME280;5663;50.864;12.096;2023-03-20T15:46:25;99432.88;;;14.58;66.02
11212;BME280;5663;50.864;12.096;2023-03-20T15:48:53;99446.28;;;14.66;66.17
11212;BME280;5663;50.864;12.096;2023-03-20T15:51:23;99448.19;;;14.64;65.94
11212;BME280;5663;50.864;12.096;2023-03-20T15:54:03;99451.84;;;14.62;66.08
11212;BME280;5663;50.864;12.096;2023-03-20T15:56:34;99452.84;;;14.59;66.24
11212;BME280;5663;50.864;12.096;2023-03-20T15:59:09;99456.72;;;14.53;66.31
11212;BME280;5663;50.864;12.096;2023-03-20T16:01:39;99439.09;;;14.43;66.78
11212;BME280;5663;50.864;12.096;2023-03-20T16:04:09;99444.31;;;14.43;66.65
11212;BME280;5663;50.864;12.096;2023-03-20T16:06:45;99461.13;;;14.53;66.69
11212;BME280;5663;50.864;12.096;2023-03-20T16:09:15;99462.81;;;14.54;66.73
11212;BME280;5663;50.864;12.096;2023-03-20T16:11:45;99450.66;;;14.53;66.88
11212;BME280;5663;50.864;12.096;2023-03-20T16:14:16;99462.69;;;14.56;66.88
11212;BME280;5663;50.864;12.096;2023-03-20T16:16:48;99460.91;;;14.56;66.82
11212;BME280;5663;50.864;12.096;2023-03-20T16:19:16;99463.53;;;14.56;67.03
11212;BME280;5663;50.864;12.096;2023-03-20T16:21:48;99460.91;;;14.56;66.82
11212;BME280;5663;50.864;12.096;2023-03-20T16:24:26;99469.72;;;14.55;66.85
11212;BME280;5663;50.864;12.096;2023-03-20T16:26:56;99473.28;;;14.54;67.05
11212;BME280;5663;50.864;12.096;2023-03-20T16:29:25;99465.63;;;14.51;67.01
11212;BME280;5663;50.864;12.096;2023-03-20T16:31:56;99463.38;;;14.45;67.11
11212;BME280;5663;50.864;12.096;2023-03-20T16:34:30;99461.69;;;14.44;66.60
11212;BME280;5663;50.864;12.096;2023-03-20T16:37:00;99461.91;;;14.41;66.59
11212;BME280;5663;50.864;12.096;2023-03-20T16:39:32;99456.03;;;14.37;66.61
11212;BME280;5663;50.864;12.096;2023-03-20T16:42:14;99462.09;;;14.38;66.40
11212;BME280;5663;50.864;12.096;2023-03-20T16:44:46;99457.06;;;14.35;66.33
11212;BME280;5663;50.864;12.096;2023-03-20T16:47:17;99453.91;;;14.29;66.24
11212;BME280;5663;50.864;12.096;2023-03-20T16:50:02;99461.84;;;14.28;66.29
11212;BME280;5663;50.864;12.096;2023-03-20T16:52:34;99466.47;;;14.24;66.16
11212;BME280;5663;50.864;12.096;2023-03-20T16:55:12;99442.94;;;14.10;66.17
11212;BME280;5663;50.864;12.096;2023-03-20T16:57:40;99464.34;;;14.17;66.22
11212;BME280;5663;50.864;12.096;2023-03-20T17:00:22;99456.03;;;14.10;65.97
11212;BME280;5663;50.864;12.096;2023-03-20T17:02:56;99461.25;;;14.10;65.97
11212;BME280;5663;50.864;12.096;2023-03-20T17:05:40;99462.41;;;14.06;65.91
11212;BME280;5663;50.864;12.096;2023-03-20T17:08:12;99466.97;;;14.02;65.95
11212;BME280;5663;50.864;12.096;2023-03-20T17:10:54;99452.25;;;13.87;66.17
11212;BME280;5663;50.864;12.096;2023-03-20T17:13:22;99471.03;;;13.94;66.17
11212;BME280;5663;50.864;12.096;2023-03-20T17:15:50;99472.16;;;13.90;66.15
11212;BME280;5663;50.864;12.096;2023-03-20T17:18:17;99468.06;;;13.86;66.10
11212;BME280;5663;50.864;12.096;2023-03-20T17:20:45;99469.91;;;13.84;66.03
11212;BME280;5663;50.864;12.096;2023-03-20T20:25:38;99469.75;;;11.77;72.27
11212;BME280;5663;50.864;12.096;2023-03-20T20:28:08;99482.47;;;11.83;72.22
11212;BME280;5663;50.864;12.096;2023-03-20T20:30:36;99481.53;;;11.84;72.61
11212;BME280;5663;50.864;12.096;2023-03-20T20:33:05;99476.25;;;11.86;72.47
11212;BME280;5663;50.864;12.096;2023-03-20T20:35:32;99473.81;;;11.83;72.44
11212;BME280;5663;50.864;12.096;2023-03-20T20:38:00;99479.69;;;11.87;72.85
11212;BME280;5663;50.864;12.096;2023-03-20T20:40:28;99473.56;;;11.88;72.81
11212;BME280;5663;50.864;12.096;2023-03-20T20:42:58;99475.22;;;11.89;72.74
11212;BME280;5663;50.864;12.096;2023-03-20T20:45:26;99471.72;;;11.90;72.64
11212;BME280;5663;50.864;12.096;2023-03-20T20:47:54;99475.16;;;11.90;72.63
11212;BME280;5663;50.864;12.096;2023-03-20T20:50:23;99478.69;;;11.89;72.53
11212;BME280;5663;50.864;12.096;2023-03-20T20:52:51;99471.88;;;11.87;72.65
11212;BME280;5663;50.864;12.096;2023-03-20T20:55:20;99475.22;;;11.89;72.87
11212;BME280;5663;50.864;12.096;2023-03-20T20:57:49;99485.97;;;11.82;72.71
11212;BME280;5663;50.864;12.096;2023-03-20T21:00:20;99478.09;;;11.84;72.92
11212;BME280;5663;50.864;12.096;2023-03-20T21:02:48;99486.22;;;11.78;72.87
11212;BME280;5663;50.864;12.096;2023-03-20T21:05:16;99482.59;;;11.80;72.89
11212;BME280;5663;50.864;12.096;2023-03-20T21:07:46;99463.25;;;11.69;72.90
11212;BME280;5663;50.864;12.096;2023-03-20T21:10:17;99486.06;;;11.81;72.84
11212;BME280;5663;50.864;12.096;2023-03-20T21:12:45;99490.41;;;11.80;72.62
11212;BME280;5663;50.864;12.096;2023-03-20T21:15:13;99488.72;;;11.79;72.44
11212;BME280;5663;50.864;12.096;2023-03-20T21:17:42;99484.78;;;11.72;72.40
11212;BME280;5663;50.864;12.096;2023-03-20T21:20:10;99496.91;;;11.73;72.28
11212;BME280;5663;50.864;12.096;2023-03-20T21:22:38;99475.84;;;11.60;72.00
11212;BME280;5663;50.864;12.096;2023-03-20T21:25:07;99487.47;;;11.71;71.62
11212;BME280;5663;50.864;12.096;2023-03-20T21:27:35;99472.59;;;11.57;71.68
11212;BME280;5663;50.864;12.096;2023-03-20T21:30:03;99458.53;;;11.44;71.29
11212;BME280;5663;50.864;12.096;2023-03-20T21:32:32;99504.28;;;11.65;71.20
11212;BME280;5663;50.864;12.096;2023-03-20T21:35:04;99500.91;;;11.63;71.11
11212;BME280;5663;50.864;12.096;2023-03-20T21:37:35;99502.56;;;11.64;70.92
11212;BME280;5663;50.864;12.096;2023-03-20T21:40:05;99478.28;;;11.48;70.72
11212;BME280;5663;50.864;12.096;2023-03-20T21:42:35;99502.75;;;11.61;70.73
11212;BME280;5663;50.864;12.096;2023-03-20T21:45:04;99497.72;;;11.58;70.55
11212;BME280;5663;50.864;12.096;2023-03-20T21:47:32;99508.13;;;11.58;70.27
11212;BME280;5663;50.864;12.096;2023-03-20T21:49:59;99506.44;;;11.57;70.29
11212;BME280;5663;50.864;12.096;2023-03-20T21:52:29;99501.25;;;11.57;69.79
11212;BME280;5663;50.864;12.096;2023-03-20T21:54:58;99503.22;;;11.52;69.70
11212;BME280;5663;50.864;12.096;2023-03-20T21:57:27;99511.66;;;11.57;69.47
11212;BME280;5663;50.864;12.096;2023-03-20T21:59:54;99509.97;;;11.56;69.51
11212;BME280;5663;50.864;12.096;2023-03-20T22:02:22;99516.88;;;11.57;69.17
11212;BME280;5663;50.864;12.096;2023-03-20T22:04:52;99486.56;;;11.39;68.96
11212;BME280;5663;50.864;12.096;2023-03-20T22:07:19;99515.25;;;11.54;69.00
11212;BME280;5663;50.864;12.096;2023-03-20T22:09:48;99519.63;;;11.54;68.49
11212;BME280;5663;50.864;12.096;2023-03-20T22:12:16;99515.50;;;11.50;68.49
11212;BME280;5663;50.864;12.096;2023-03-20T22:14:44;99515.66;;;11.47;68.18
11212;BME280;5663;50.864;12.096;2023-03-20T22:17:11;99517.47;;;11.45;67.72
11212;BME280;5663;50.864;12.096;2023-03-20T22:19:39;99520.28;;;11.42;67.39
11212;BME280;5663;50.864;12.096;2023-03-20T22:22:06;99525.53;;;11.40;67.29
11212;BME280;5663;50.864;12.096;2023-03-20T22:24:34;99522.19;;;11.38;67.11
11212;BME280;5663;50.864;12.096;2023-03-20T22:27:04;99506.81;;;11.16;66.92
11212;BME280;5663;50.864;12.096;2023-03-20T22:29:32;99537.28;;;11.31;66.66
11212;BME280;5663;50.864;12.096;2023-03-20T22:31:59;99533.06;;;11.29;66.36
11212;BME280;5663;50.864;12.096;2023-03-20T22:34:27;99529.03;;;11.23;66.32
11212;BME280;5663;50.864;12.096;2023-03-20T22:36:55;99536.97;;;11.20;66.07
11212;BME280;5663;50.864;12.096;2023-03-20T22:39:23;99541.44;;;11.18;66.03
11212;BME280;5663;50.864;12.096;2023-03-20T22:41:50;99540.59;;;11.18;65.83
11212;BME280;5663;50.864;12.096;2023-03-20T22:44:19;99530.34;;;11.15;65.72
11212;BME280;5663;50.864;12.096;2023-03-20T22:46:46;99534.69;;;11.14;65.54
11212;BME280;5663;50.864;12.096;2023-03-20T22:49:14;99531.78;;;11.03;65.46
11212;BME280;5663;50.864;12.096;2023-03-20T22:51:41;99536.53;;;11.12;65.45
11212;BME280;5663;50.864;12.096;2023-03-20T22:54:09;99531.47;;;11.09;65.38
11212;BME280;5663;50.864;12.096;2023-03-20T22:56:36;99531.66;;;11.06;65.13
11212;BME280;5663;50.864;12.096;2023-03-20T22:59:04;99524.69;;;11.06;65.29
11212;BME280;5663;50.864;12.096;2023-03-20T23:01:33;99533.31;;;11.07;65.17
11212;BME280;5663;50.864;12.096;2023-03-20T23:04:00;99528.25;;;11.04;65.07
11212;BME280;5663;50.864;12.096;2023-03-20T23:06:29;99529.28;;;11.01;65.22
11212;BME280;5663;50.864;12.096;2023-03-20T23:08:56;99523.19;;;11.01;65.23
11212;BME280;5663;50.864;12.096;2023-03-20T23:11:25;99526.72;;;11.00;64.97
11212;BME280;5663;50.864;12.096;2023-03-20T23:13:53;99528.59;;;10.98;65.20
11212;BME280;5663;50.864;12.096;2023-03-20T23:16:21;99517.25;;;10.81;65.26
11212;BME280;5663;50.864;12.096;2023-03-20T23:18:49;99536.53;;;10.95;65.49
11212;BME280;5663;50.864;12.096;2023-03-20T23:21:17;99539.13;;;10.95;65.66
11212;BME280;5663;50.864;12.096;2023-03-20T23:23:45;99541.84;;;10.93;65.76
11212;BME280;5663;50.864;12.096;2023-03-20T23:26:14;99544.50;;;10.92;65.65
11212;BME280;5663;50.864;12.096;2023-03-20T23:28:43;99524.97;;;10.83;65.66
11212;BME280;5663;50.864;12.096;2023-03-20T23:31:13;99539.28;;;10.92;65.51
11212;BME280;5663;50.864;12.096;2023-03-20T23:33:43;99539.28;;;10.92;65.45
11212;BME280;5663;50.864;12.096;2023-03-20T23:36:14;99542.81;;;10.91;65.10
11212;BME280;5663;50.864;12.096;2023-03-20T23:38:42;99535.09;;;10.89;65.28
11212;BME280;5663;50.864;12.096;2023-03-20T23:41:10;99542.97;;;10.88;65.59
11212;BME280;5663;50.864;12.096;2023-03-20T23:43:38;99532.88;;;10.81;65.56
11212;BME280;5663;50.864;12.096;2023-03-20T23:46:06;99540.34;;;10.88;65.38
11212;BME280;5663;50.864;12.096;2023-03-20T23:48:36;99548.16;;;10.88;65.45
11212;BME280;5663;50.864;12.096;2023-03-20T23:51:04;99482.34;;;10.51;65.46
11212;BME280;5663;50.864;12.096;2023-03-20T23:53:34;99538.59;;;10.88;65.37
11212;BME280;5663;50.864;12.096;2023-03-20T23:56:02;99543.88;;;10.87;65.43
11212;BME280;5663;50.864;12.096;2023-03-20T23:58:29;99535.25;;;10.86;65.36
